sensor_id;sensor_type;location;lat;lon;timestamp;pressure;altitude;pressure_sealevel;temperature;humidity
13209;BME280;6669;42.678;23.332;2023-05-20T00:01:29;94836.84;;;12.32;100.00
13209;BME280;6669;42.678;23.332;2023-05-20T00:03:58;94836.38;;;12.28;100.00
13209;BME280;6669;42.678;23.332;2023-05-20T00:06:27;94835.47;;;12.21;100.00
13209;BME280;6669;42.678;23.332;2023-05-20T00:08:55;94827.44;;;12.07;100.00
13209;BME280;6669;42.678;23.332;2023-05-20T00:11:25;94836.38;;;12.13;100.00
13209;BME280;6669;42.678;23.332;2023-05-20T00:13:53;94817.94;;;11.91;100.00
13209;BME280;6669;42.678;23.332;2023-05-20T00:16:21;94821.72;;;11.89;100.00
13209;BME280;6669;42.678;23.332;2023-05-20T00:18:49;94842.75;;;12.10;100.00
13209;BME280;6669;42.678;23.332;2023-05-20T00:21:18;94813.06;;;11.88;100.00
13209;BME280;6669;42.678;23.332;2023-05-20T00:23:46;94828.97;;;11.93;100.00
13209;BME280;6669;42.678;23.332;2023-05-20T00:26:14;94826.28;;;11.87;100.00
13209;BME280;6669;42.678;23.332;2023-05-20T00:28:43;94820.28;;;11.86;100.00
13209;BME280;6669;42.678;23.332;2023-05-20T00:31:11;94830.78;;;11.93;100.00
13209;BME280;6669;42.678;23.332;2023-05-20T00:33:39;94818.56;;;11.93;100.00
13209;BME280;6669;42.678;23.332;2023-05-20T00:36:07;94820.78;;;11.82;100.00
13209;BME280;6669;42.678;23.332;2023-05-20T00:38:37;94806.41;;;11.86;100.00
13209;BME280;6669;42.678;23.332;2023-05-20T00:41:05;94797.09;;;11.68;100.00
13209;BME280;6669;42.678;23.332;2023-05-20T00:43:33;94814.06;;;11.87;100.00
13209;BME280;6669;42.678;23.332;2023-05-20T00:46:01;94796.38;;;11.83;100.00
13209;BME280;6669;42.678;23.332;2023-05-20T00:48:34;94807.34;;;11.93;100.00
13209;BME280;6669;42.678;23.332;2023-05-20T00:51:06;94809.63;;;11.96;100.00
13209;BME280;6669;42.678;23.332;2023-05-20T00:53:34;94790.47;;;11.89;100.00
13209;BME280;6669;42.678;23.332;2023-05-20T00:56:06;94807.69;;;11.90;100.00
13209;BME280;6669;42.678;23.332;2023-05-20T00:58:35;94804.19;;;11.83;100.00
13209;BME280;6669;42.678;23.332;2023-05-20T01:01:04;94802.78;;;11.72;100.00
13209;BME280;6669;42.678;23.332;2023-05-20T01:03:32;94799.78;;;11.60;100.00
13209;BME280;6669;42.678;23.332;2023-05-20T01:06:01;94811.88;;;11.76;100.00
13209;BME280;6669;42.678;23.332;2023-05-20T01:08:29;94792.91;;;11.67;100.00
13209;BME280;6669;42.678;23.332;2023-05-20T01:11:02;94792.94;;;11.59;100.00
13209;BME280;6669;42.678;23.332;2023-05-20T01:13:36;94810.03;;;11.61;100.00
13209;BME280;6669;42.678;23.332;2023-05-20T01:16:07;94812.00;;;11.59;100.00
13209;BME280;6669;42.678;23.332;2023-05-20T01:18:38;94810.72;;;11.55;100.00
13209;BME280;6669;42.678;23.332;2023-05-20T01:21:07;94798.03;;;11.29;100.00
13209;BME280;6669;42.678;23.332;2023-05-20T01:23:39;94817.13;;;11.44;100.00
13209;BME280;6669;42.678;23.332;2023-05-20T01:26:08;94809.63;;;11.50;100.00
13209;BME280;6669;42.678;23.332;2023-05-20T01:28:40;94798.38;;;11.49;100.00
13209;BME280;6669;42.678;23.332;2023-05-20T01:31:13;94813.75;;;11.67;100.00
13209;BME280;6669;42.678;23.332;2023-05-20T01:33:43;94813.28;;;11.64;100.00
13209;BME280;6669;42.678;23.332;2023-05-20T01:36:13;94808.00;;;11.49;100.00
13209;BME280;6669;42.678;23.332;2023-05-20T01:38:43;94815.16;;;11.47;100.00
13209;BME280;6669;42.678;23.332;2023-05-20T01:41:11;94789.22;;;11.30;100.00
13209;BME280;6669;42.678;23.332;2023-05-20T01:43:40;94818.47;;;11.40;100.00
13209;BME280;6669;42.678;23.332;2023-05-20T01:46:09;94818.78;;;11.37;100.00
13209;BME280;6669;42.678;23.332;2023-05-20T01:48:37;94798.25;;;11.19;100.00
13209;BME280;6669;42.678;23.332;2023-05-20T01:51:05;94810.88;;;11.31;100.00
13209;BME280;6669;42.678;23.332;2023-05-20T01:53:33;94808.88;;;11.33;100.00
13209;BME280;6669;42.678;23.332;2023-05-20T01:56:04;94801.94;;;11.25;100.00
13209;BME280;6669;42.678;23.332;2023-05-20T01:58:32;94815.78;;;11.25;100.00
13209;BME280;6669;42.678;23.332;2023-05-20T02:01:00;94797.78;;;11.16;100.00
13209;BME280;6669;42.678;23.332;2023-05-20T02:03:29;94804.53;;;11.25;100.00
13209;BME280;6669;42.678;23.332;2023-05-20T02:05:57;94791.13;;;11.13;100.00
13209;BME280;6669;42.678;23.332;2023-05-20T02:08:25;94807.31;;;11.23;100.00
13209;BME280;6669;42.678;23.332;2023-05-20T02:10:53;94793.53;;;11.15;100.00
13209;BME280;6669;42.678;23.332;2023-05-20T02:13:23;94768.63;;;10.97;100.00
13209;BME280;6669;42.678;23.332;2023-05-20T02:15:51;94787.06;;;11.10;100.00
13209;BME280;6669;42.678;23.332;2023-05-20T02:18:19;94791.31;;;11.11;100.00
13209;BME280;6669;42.678;23.332;2023-05-20T02:20:47;94770.53;;;11.03;100.00
13209;BME280;6669;42.678;23.332;2023-05-20T02:23:15;94786.91;;;11.12;100.00
13209;BME280;6669;42.678;23.332;2023-05-20T02:25:44;94789.69;;;11.10;100.00
13209;BME280;6669;42.678;23.332;2023-05-20T02:28:12;94780.84;;;11.20;100.00
13209;BME280;6669;42.678;23.332;2023-05-20T02:30:42;94781.31;;;11.23;100.00
13209;BME280;6669;42.678;23.332;2023-05-20T02:33:10;94784.16;;;11.37;100.00
13209;BME280;6669;42.678;23.332;2023-05-20T02:35:39;94787.38;;;11.39;100.00
13209;BME280;6669;42.678;23.332;2023-05-20T02:38:07;94768.00;;;11.18;100.00
13209;BME280;6669;42.678;23.332;2023-05-20T02:40:35;94793.22;;;11.18;100.00
13209;BME280;6669;42.678;23.332;2023-05-20T02:43:04;94780.47;;;11.00;100.00
13209;BME280;6669;42.678;23.332;2023-05-20T02:45:32;94788.41;;;11.06;100.00
13209;BME280;6669;42.678;23.332;2023-05-20T02:48:01;94786.66;;;10.99;100.00
13209;BME280;6669;42.678;23.332;2023-05-20T02:50:29;94779.84;;;10.89;100.00
13209;BME280;6669;42.678;23.332;2023-05-20T02:52:57;94775.81;;;10.87;100.00
13209;BME280;6669;42.678;23.332;2023-05-20T02:55:26;94763.81;;;10.86;100.00
13209;BME280;6669;42.678;23.332;2023-05-20T02:57:55;94784.84;;;10.99;100.00
13209;BME280;6669;42.678;23.332;2023-05-20T03:00:23;94785.22;;;10.96;100.00
13209;BME280;6669;42.678;23.332;2023-05-20T03:02:54;94779.84;;;10.89;100.00
13209;BME280;6669;42.678;23.332;2023-05-20T03:05:23;94788.66;;;10.88;100.00
13209;BME280;6669;42.678;23.332;2023-05-20T03:07:53;94793.38;;;10.85;100.00
13209;BME280;6669;42.678;23.332;2023-05-20T03:10:21;94769.03;;;10.77;100.00
13209;BME280;6669;42.678;23.332;2023-05-20T03:12:49;94806.94;;;11.03;100.00
13209;BME280;6669;42.678;23.332;2023-05-20T03:15:17;94812.13;;;11.03;100.00
13209;BME280;6669;42.678;23.332;2023-05-20T03:17:45;94791.72;;;10.92;100.00
13209;BME280;6669;42.678;23.332;2023-05-20T03:20:13;94784.94;;;10.83;100.00
13209;BME280;6669;42.678;23.332;2023-05-20T03:22:43;94808.13;;;10.92;100.00
13209;BME280;6669;42.678;23.332;2023-05-20T03:25:11;94807.38;;;10.75;100.00
13209;BME280;6669;42.678;23.332;2023-05-20T03:27:39;94817.47;;;10.78;100.00
13209;BME280;6669;42.678;23.332;2023-05-20T03:30:09;94803.19;;;10.74;100.00
13209;BME280;6669;42.678;23.332;2023-05-20T03:32:37;94814.50;;;10.90;100.00
13209;BME280;6669;42.678;23.332;2023-05-20T03:35:06;94812.19;;;10.95;100.00
13209;BME280;6669;42.678;23.332;2023-05-20T03:37:34;94814.28;;;11.00;100.00
13209;BME280;6669;42.678;23.332;2023-05-20T03:40:06;94811.34;;;10.94;100.00
13209;BME280;6669;42.678;23.332;2023-05-20T03:42:36;94806.13;;;11.03;100.00
13209;BME280;6669;42.678;23.332;2023-05-20T03:45:05;94820.03;;;11.18;100.00
13209;BME280;6669;42.678;23.332;2023-05-20T03:47:33;94819.41;;;11.16;100.00
13209;BME280;6669;42.678;23.332;2023-05-20T03:50:01;94830.06;;;11.29;100.00
13209;BME280;6669;42.678;23.332;2023-05-20T03:52:29;94823.41;;;11.27;100.00
13209;BME280;6669;42.678;23.332;2023-05-20T03:54:57;94825.53;;;11.23;100.00
13209;BME280;6669;42.678;23.332;2023-05-20T03:57:27;94831.22;;;11.27;100.00
13209;BME280;6669;42.678;23.332;2023-05-20T03:59:55;94838.53;;;11.32;100.00
13209;BME280;6669;42.678;23.332;2023-05-20T04:02:23;94838.84;;;11.28;100.00
13209;BME280;6669;42.678;23.332;2023-05-20T04:04:51;94839.91;;;11.42;100.00
13209;BME280;6669;42.678;23.332;2023-05-20T04:07:19;94829.56;;;11.34;100.00
13209;BME280;6669;42.678;23.332;2023-05-20T04:09:47;94838.56;;;11.47;100.00
13209;BME280;6669;42.678;23.332;2023-05-20T04:12:15;94835.34;;;11.44;100.00
13209;BME280;6669;42.678;23.332;2023-05-20T04:14:46;94832.47;;;11.39;100.00
13209;BME280;6669;42.678;23.332;2023-05-20T04:17:15;94838.88;;;11.52;100.00
13209;BME280;6669;42.678;23.332;2023-05-20T04:19:43;94827.84;;;11.50;100.00
13209;BME280;6669;42.678;23.332;2023-05-20T04:22:11;94845.75;;;11.76;100.00
13209;BME280;6669;42.678;23.332;2023-05-20T04:24:39;94828.03;;;11.71;100.00
13209;BME280;6669;42.678;23.332;2023-05-20T04:27:07;94840.28;;;11.86;100.00
13209;BME280;6669;42.678;23.332;2023-05-20T04:29:36;94835.03;;;11.94;100.00
13209;BME280;6669;42.678;23.332;2023-05-20T04:32:08;94812.59;;;11.85;100.00
13209;BME280;6669;42.678;23.332;2023-05-20T04:34:37;94845.34;;;12.10;100.00
13209;BME280;6669;42.678;23.332;2023-05-20T04:37:05;94855.88;;;12.17;100.00
13209;BME280;6669;42.678;23.332;2023-05-20T04:39:33;94829.06;;;12.08;100.00
13209;BME280;6669;42.678;23.332;2023-05-20T04:42:02;94815.94;;;12.02;100.00
13209;BME280;6669;42.678;23.332;2023-05-20T04:44:30;94850.28;;;12.20;100.00
13209;BME280;6669;42.678;23.332;2023-05-20T04:46:58;94865.69;;;12.30;100.00
13209;BME280;6669;42.678;23.332;2023-05-20T04:49:28;94859.13;;;12.34;100.00
13209;BME280;6669;42.678;23.332;2023-05-20T04:51:56;94862.38;;;12.36;100.00
13209;BME280;6669;42.678;23.332;2023-05-20T04:54:24;94846.56;;;12.38;100.00
13209;BME280;6669;42.678;23.332;2023-05-20T04:56:52;94863.03;;;12.53;100.00
13209;BME280;6669;42.678;23.332;2023-05-20T04:59:20;94854.69;;;12.58;100.00
13209;BME280;6669;42.678;23.332;2023-05-20T05:01:48;94848.75;;;12.64;100.00
13209;BME280;6669;42.678;23.332;2023-05-20T05:04:16;94840.81;;;12.72;100.00
13209;BME280;6669;42.678;23.332;2023-05-20T05:06:48;94843.38;;;12.81;100.00
13209;BME280;6669;42.678;23.332;2023-05-20T05:09:16;94854.41;;;12.98;100.00
13209;BME280;6669;42.678;23.332;2023-05-20T05:11:44;94864.78;;;13.06;100.00
13209;BME280;6669;42.678;23.332;2023-05-20T05:14:12;94864.13;;;13.19;100.00
13209;BME280;6669;42.678;23.332;2023-05-20T05:16:40;94849.81;;;13.15;100.00
13209;BME280;6669;42.678;23.332;2023-05-20T05:19:11;94834.16;;;13.15;100.00
13209;BME280;6669;42.678;23.332;2023-05-20T05:21:41;94834.84;;;13.23;100.00
13209;BME280;6669;42.678;23.332;2023-05-20T05:24:10;94823.78;;;13.21;100.00
13209;BME280;6669;42.678;23.332;2023-05-20T05:26:38;94857.63;;;13.45;100.00
13209;BME280;6669;42.678;23.332;2023-05-20T05:29:06;94807.31;;;13.21;100.00
13209;BME280;6669;42.678;23.332;2023-05-20T05:31:37;94837.38;;;13.47;100.00
13209;BME280;6669;42.678;23.332;2023-05-20T05:34:05;94851.06;;;13.70;100.00
13209;BME280;6669;42.678;23.332;2023-05-20T05:36:33;94843.56;;;13.82;100.00
13209;BME280;6669;42.678;23.332;2023-05-20T05:39:01;94825.81;;;13.78;100.00
13209;BME280;6669;42.678;23.332;2023-05-20T05:41:31;94851.19;;;14.05;100.00
13209;BME280;6669;42.678;23.332;2023-05-20T05:43:59;94843.09;;;14.22;100.00
13209;BME280;6669;42.678;23.332;2023-05-20T05:46:27;94847.38;;;14.30;100.00
13209;BME280;6669;42.678;23.332;2023-05-20T05:48:55;94840.00;;;14.40;100.00
13209;BME280;6669;42.678;23.332;2023-05-20T05:51:26;94849.19;;;14.58;100.00
13209;BME280;6669;42.678;23.332;2023-05-20T05:53:54;94852.38;;;14.53;100.00
13209;BME280;6669;42.678;23.332;2023-05-20T05:56:22;94840.16;;;14.60;100.00
13209;BME280;6669;42.678;23.332;2023-05-20T05:58:52;94845.88;;;14.70;100.00
13209;BME280;6669;42.678;23.332;2023-05-20T06:01:20;94840.41;;;14.65;100.00
13209;BME280;6669;42.678;23.332;2023-05-20T06:04:11;94829.94;;;14.65;100.00
13209;BME280;6669;42.678;23.332;2023-05-20T06:06:39;94817.41;;;14.61;100.00
13209;BME280;6669;42.678;23.332;2023-05-20T06:09:07;94831.63;;;14.80;100.00
13209;BME280;6669;42.678;23.332;2023-05-20T06:11:35;94842.59;;;14.97;100.00
13209;BME280;6669;42.678;23.332;2023-05-20T06:14:05;94842.06;;;15.08;100.00
13209;BME280;6669;42.678;23.332;2023-05-20T06:16:33;94824.19;;;15.18;100.00
13209;BME280;6669;42.678;23.332;2023-05-20T06:19:01;94827.44;;;15.27;100.00
13209;BME280;6669;42.678;23.332;2023-05-20T06:21:31;94825.00;;;15.26;100.00
13209;BME280;6669;42.678;23.332;2023-05-20T06:23:59;94840.78;;;15.52;100.00
13209;BME280;6669;42.678;23.332;2023-05-20T06:26:27;94816.78;;;15.42;100.00
13209;BME280;6669;42.678;23.332;2023-05-20T06:28:55;94842.88;;;15.77;100.00
13209;BME280;6669;42.678;23.332;2023-05-20T06:31:25;94849.38;;;15.88;100.00
13209;BME280;6669;42.678;23.332;2023-05-20T06:33:53;94819.94;;;15.86;100.00
13209;BME280;6669;42.678;23.332;2023-05-20T06:36:21;94820.16;;;15.98;100.00
13209;BME280;6669;42.678;23.332;2023-05-20T06:38:49;94834.09;;;16.12;100.00
13209;BME280;6669;42.678;23.332;2023-05-20T06:41:17;94831.06;;;16.28;100.00
13209;BME280;6669;42.678;23.332;2023-05-20T06:43:45;94830.22;;;16.48;100.00
13209;BME280;6669;42.678;23.332;2023-05-20T06:46:15;94822.53;;;16.66;100.00
13209;BME280;6669;42.678;23.332;2023-05-20T06:48:45;94796.91;;;16.69;100.00
13209;BME280;6669;42.678;23.332;2023-05-20T06:51:13;94803.94;;;16.81;100.00
13209;BME280;6669;42.678;23.332;2023-05-20T06:53:41;94817.03;;;16.95;100.00
13209;BME280;6669;42.678;23.332;2023-05-20T06:56:09;94831.56;;;17.11;100.00
13209;BME280;6669;42.678;23.332;2023-05-20T06:58:37;94823.66;;;17.11;100.00
13209;BME280;6669;42.678;23.332;2023-05-20T07:01:06;94829.44;;;17.33;100.00
13209;BME280;6669;42.678;23.332;2023-05-20T07:03:34;94815.72;;;17.24;100.00
13209;BME280;6669;42.678;23.332;2023-05-20T07:06:04;94822.13;;;17.42;100.00
13209;BME280;6669;42.678;23.332;2023-05-20T07:08:32;94799.56;;;17.27;100.00
13209;BME280;6669;42.678;23.332;2023-05-20T07:11:02;94814.19;;;17.55;100.00
13209;BME280;6669;42.678;23.332;2023-05-20T07:13:30;94826.50;;;17.55;100.00
13209;BME280;6669;42.678;23.332;2023-05-20T07:15:58;94806.66;;;17.65;100.00
13209;BME280;6669;42.678;23.332;2023-05-20T07:18:26;94822.31;;;17.79;100.00
13209;BME280;6669;42.678;23.332;2023-05-20T07:20:55;94818.06;;;17.85;100.00
13209;BME280;6669;42.678;23.332;2023-05-20T07:23:25;94824.84;;;17.99;100.00
13209;BME280;6669;42.678;23.332;2023-05-20T07:25:53;94798.78;;;17.97;100.00
13209;BME280;6669;42.678;23.332;2023-05-20T07:28:21;94792.88;;;18.02;100.00
13209;BME280;6669;42.678;23.332;2023-05-20T07:30:50;94815.44;;;18.17;100.00
13209;BME280;6669;42.678;23.332;2023-05-20T07:33:21;94815.91;;;18.32;100.00
13209;BME280;6669;42.678;23.332;2023-05-20T07:35:51;94815.66;;;18.40;100.00
13209;BME280;6669;42.678;23.332;2023-05-20T07:38:20;94813.97;;;18.46;100.00
13209;BME280;6669;42.678;23.332;2023-05-20T07:40:49;94813.53;;;18.49;100.00
13209;BME280;6669;42.678;23.332;2023-05-20T07:43:17;94823.34;;;18.60;100.00
13209;BME280;6669;42.678;23.332;2023-05-20T07:45:45;94814.06;;;18.58;100.00
13209;BME280;6669;42.678;23.332;2023-05-20T07:48:13;94817.13;;;18.73;100.00
13209;BME280;6669;42.678;23.332;2023-05-20T07:50:41;94814.00;;;18.83;100.00
13209;BME280;6669;42.678;23.332;2023-05-20T07:53:09;94810.09;;;18.92;100.00
13209;BME280;6669;42.678;23.332;2023-05-20T07:55:37;94814.19;;;19.07;100.00
13209;BME280;6669;42.678;23.332;2023-05-20T07:58:07;94819.31;;;19.20;100.00
13209;BME280;6669;42.678;23.332;2023-05-20T08:00:35;94820.41;;;19.31;100.00
13209;BME280;6669;42.678;23.332;2023-05-20T08:03:03;94825.66;;;19.31;100.00
13209;BME280;6669;42.678;23.332;2023-05-20T08:05:35;94814.91;;;19.33;100.00
13209;BME280;6669;42.678;23.332;2023-05-20T08:08:04;94812.88;;;19.16;100.00
13209;BME280;6669;42.678;23.332;2023-05-20T08:10:32;94806.34;;;19.19;100.00
13209;BME280;6669;42.678;23.332;2023-05-20T08:13:00;94814.91;;;19.14;100.00
13209;BME280;6669;42.678;23.332;2023-05-20T08:15:29;94814.63;;;19.22;100.00
13209;BME280;6669;42.678;23.332;2023-05-20T08:17:57;94810.16;;;19.23;100.00
13209;BME280;6669;42.678;23.332;2023-05-20T08:20:25;94808.75;;;19.20;100.00
13209;BME280;6669;42.678;23.332;2023-05-20T08:22:54;94802.31;;;19.35;100.00
13209;BME280;6669;42.678;23.332;2023-05-20T08:25:22;94804.88;;;19.41;100.00
13209;BME280;6669;42.678;23.332;2023-05-20T08:27:50;94793.66;;;19.46;100.00
13209;BME280;6669;42.678;23.332;2023-05-20T08:30:18;94801.00;;;19.56;100.00
13209;BME280;6669;42.678;23.332;2023-05-20T08:32:48;94796.22;;;19.83;100.00
13209;BME280;6669;42.678;23.332;2023-05-20T08:35:16;94801.75;;;19.75;100.00
13209;BME280;6669;42.678;23.332;2023-05-20T08:37:44;94795.47;;;19.76;100.00
13209;BME280;6669;42.678;23.332;2023-05-20T08:40:13;94792.44;;;19.60;100.00
13209;BME280;6669;42.678;23.332;2023-05-20T08:42:41;94794.28;;;19.60;100.00
13209;BME280;6669;42.678;23.332;2023-05-20T08:45:10;94789.31;;;19.82;100.00
13209;BME280;6669;42.678;23.332;2023-05-20T08:47:42;94793.25;;;19.91;100.00
13209;BME280;6669;42.678;23.332;2023-05-20T08:50:13;94805.66;;;20.03;100.00
13209;BME280;6669;42.678;23.332;2023-05-20T08:52:42;94800.84;;;20.00;100.00
13209;BME280;6669;42.678;23.332;2023-05-20T08:55:13;94791.06;;;19.88;100.00
13209;BME280;6669;42.678;23.332;2023-05-20T08:57:42;94806.00;;;19.95;100.00
13209;BME280;6669;42.678;23.332;2023-05-20T09:00:14;94793.66;;;20.19;100.00
13209;BME280;6669;42.678;23.332;2023-05-20T09:02:44;94798.94;;;20.31;100.00
13209;BME280;6669;42.678;23.332;2023-05-20T09:05:15;94793.19;;;20.57;100.00
13209;BME280;6669;42.678;23.332;2023-05-20T09:07:44;94783.66;;;20.68;100.00
13209;BME280;6669;42.678;23.332;2023-05-20T09:10:12;94780.34;;;20.73;100.00
13209;BME280;6669;42.678;23.332;2023-05-20T09:12:40;94779.53;;;20.49;100.00
13209;BME280;6669;42.678;23.332;2023-05-20T09:15:08;94773.69;;;20.70;100.00
13209;BME280;6669;42.678;23.332;2023-05-20T09:17:37;94771.16;;;20.64;100.00
13209;BME280;6669;42.678;23.332;2023-05-20T09:20:06;94771.25;;;20.81;100.00
13209;BME280;6669;42.678;23.332;2023-05-20T09:22:38;94771.25;;;20.93;100.00
13209;BME280;6669;42.678;23.332;2023-05-20T09:25:07;94767.97;;;21.14;100.00
13209;BME280;6669;42.678;23.332;2023-05-20T09:27:37;94759.84;;;21.04;100.00
13209;BME280;6669;42.678;23.332;2023-05-20T09:30:06;94773.56;;;21.30;100.00
13209;BME280;6669;42.678;23.332;2023-05-20T09:32:34;94763.50;;;21.44;100.00
13209;BME280;6669;42.678;23.332;2023-05-20T09:35:02;94764.47;;;21.54;100.00
13209;BME280;6669;42.678;23.332;2023-05-20T09:37:33;94762.19;;;21.58;100.00
13209;BME280;6669;42.678;23.332;2023-05-20T09:40:04;94758.44;;;21.71;100.00
13209;BME280;6669;42.678;23.332;2023-05-20T09:42:39;94758.81;;;21.92;100.00
13209;BME280;6669;42.678;23.332;2023-05-20T09:45:09;94750.06;;;21.91;100.00
13209;BME280;6669;42.678;23.332;2023-05-20T09:47:38;94751.88;;;21.74;100.00
13209;BME280;6669;42.678;23.332;2023-05-20T09:50:08;94753.47;;;21.58;100.00
13209;BME280;6669;42.678;23.332;2023-05-20T09:52:37;94740.91;;;21.53;98.73
13209;BME280;6669;42.678;23.332;2023-05-20T09:55:08;94746.38;;;21.75;95.82
13209;BME280;6669;42.678;23.332;2023-05-20T09:57:37;94727.69;;;21.82;96.46
13209;BME280;6669;42.678;23.332;2023-05-20T10:00:06;94737.31;;;21.88;96.77
13209;BME280;6669;42.678;23.332;2023-05-20T10:02:35;94740.38;;;22.14;97.98
13209;BME280;6669;42.678;23.332;2023-05-20T10:05:06;94732.97;;;22.33;99.37
13209;BME280;6669;42.678;23.332;2023-05-20T10:11:05;94724.66;;;22.07;92.82
13209;BME280;6669;42.678;23.332;2023-05-20T10:13:49;94719.34;;;21.73;85.82
13209;BME280;6669;42.678;23.332;2023-05-20T10:16:26;94713.97;;;21.68;88.16
13209;BME280;6669;42.678;23.332;2023-05-20T10:19:02;94706.56;;;21.70;88.28
13209;BME280;6669;42.678;23.332;2023-05-20T10:21:32;94709.72;;;21.84;89.05
13209;BME280;6669;42.678;23.332;2023-05-20T10:24:07;94698.41;;;22.23;94.59
13209;BME280;6669;42.678;23.332;2023-05-20T10:26:37;94689.91;;;22.38;87.87
13209;BME280;6669;42.678;23.332;2023-05-20T10:29:15;94703.41;;;22.58;83.07
13209;BME280;6669;42.678;23.332;2023-05-20T10:31:43;94698.19;;;22.63;80.81
13209;BME280;6669;42.678;23.332;2023-05-20T10:34:14;94701.78;;;22.79;80.55
13209;BME280;6669;42.678;23.332;2023-05-20T10:36:45;94695.69;;;23.01;82.63
13209;BME280;6669;42.678;23.332;2023-05-20T10:39:14;94695.13;;;23.21;74.29
13209;BME280;6669;42.678;23.332;2023-05-20T10:41:44;94689.81;;;23.43;73.79
13209;BME280;6669;42.678;23.332;2023-05-20T10:44:12;94679.91;;;23.66;71.48
13209;BME280;6669;42.678;23.332;2023-05-20T10:46:40;94679.84;;;23.61;71.32
13209;BME280;6669;42.678;23.332;2023-05-20T10:49:17;94670.28;;;23.55;70.54
13209;BME280;6669;42.678;23.332;2023-05-20T10:51:49;94669.75;;;23.90;70.34
13209;BME280;6669;42.678;23.332;2023-05-20T10:54:18;94672.09;;;24.19;69.10
13209;BME280;6669;42.678;23.332;2023-05-20T10:56:52;94658.81;;;24.67;65.52
13209;BME280;6669;42.678;23.332;2023-05-20T10:59:20;94653.59;;;25.03;65.69
13209;BME280;6669;42.678;23.332;2023-05-20T11:01:48;94660.09;;;25.59;64.35
13209;BME280;6669;42.678;23.332;2023-05-20T11:04:17;94652.91;;;25.90;60.47
13209;BME280;6669;42.678;23.332;2023-05-20T11:06:49;94652.34;;;26.19;60.21
13209;BME280;6669;42.678;23.332;2023-05-20T11:09:19;94655.59;;;26.06;61.14
13209;BME280;6669;42.678;23.332;2023-05-20T11:11:48;94650.75;;;25.98;62.33
13209;BME280;6669;42.678;23.332;2023-05-20T11:14:18;94646.78;;;25.43;63.60
13209;BME280;6669;42.678;23.332;2023-05-20T11:16:50;94665.00;;;24.88;63.71
13209;BME280;6669;42.678;23.332;2023-05-20T11:19:18;94653.09;;;24.43;64.86
13209;BME280;6669;42.678;23.332;2023-05-20T11:21:47;94641.28;;;24.71;63.94
13209;BME280;6669;42.678;23.332;2023-05-20T11:24:22;94633.34;;;24.87;65.26
13209;BME280;6669;42.678;23.332;2023-05-20T11:26:51;94637.91;;;24.96;65.68
13209;BME280;6669;42.678;23.332;2023-05-20T11:29:20;94636.56;;;24.89;65.87
13209;BME280;6669;42.678;23.332;2023-05-20T11:31:48;94634.81;;;24.52;68.18
13209;BME280;6669;42.678;23.332;2023-05-20T11:34:19;94613.66;;;24.77;66.03
13209;BME280;6669;42.678;23.332;2023-05-20T11:36:55;94627.97;;;24.66;67.12
13209;BME280;6669;42.678;23.332;2023-05-20T11:39:23;94617.19;;;24.30;67.94
13209;BME280;6669;42.678;23.332;2023-05-20T11:41:52;94628.03;;;23.86;69.13
13209;BME280;6669;42.678;23.332;2023-05-20T11:44:21;94619.50;;;24.16;70.77
13209;BME280;6669;42.678;23.332;2023-05-20T11:46:49;94611.06;;;24.35;67.20
13209;BME280;6669;42.678;23.332;2023-05-20T11:49:17;94616.66;;;24.38;67.01
13209;BME280;6669;42.678;23.332;2023-05-20T11:51:45;94611.22;;;24.07;68.17
13209;BME280;6669;42.678;23.332;2023-05-20T11:54:13;94607.53;;;24.13;69.62
13209;BME280;6669;42.678;23.332;2023-05-20T11:56:43;94604.16;;;23.86;70.03
13209;BME280;6669;42.678;23.332;2023-05-20T11:59:11;94605.44;;;24.21;67.44
13209;BME280;6669;42.678;23.332;2023-05-20T12:01:41;94581.22;;;24.80;65.16
13209;BME280;6669;42.678;23.332;2023-05-20T12:04:10;94603.63;;;25.26;65.28
13209;BME280;6669;42.678;23.332;2023-05-20T12:06:39;94600.16;;;25.92;62.73
13209;BME280;6669;42.678;23.332;2023-05-20T12:09:09;94594.13;;;26.63;62.17
13209;BME280;6669;42.678;23.332;2023-05-20T12:11:38;94586.81;;;26.89;59.90
13209;BME280;6669;42.678;23.332;2023-05-20T12:14:08;94588.56;;;26.54;61.00
13209;BME280;6669;42.678;23.332;2023-05-20T12:16:36;94585.16;;;26.38;61.25
13209;BME280;6669;42.678;23.332;2023-05-20T12:19:06;94600.97;;;25.93;61.79
13209;BME280;6669;42.678;23.332;2023-05-20T12:21:35;94588.97;;;24.92;64.11
13209;BME280;6669;42.678;23.332;2023-05-20T12:24:03;94598.16;;;24.01;67.05
13209;BME280;6669;42.678;23.332;2023-05-20T12:26:32;94606.19;;;23.36;70.67
13209;BME280;6669;42.678;23.332;2023-05-20T12:29:01;94617.34;;;22.88;72.71
13209;BME280;6669;42.678;23.332;2023-05-20T12:31:29;94633.16;;;22.78;74.78
13209;BME280;6669;42.678;23.332;2023-05-20T12:34:00;94627.50;;;22.47;76.89
13209;BME280;6669;42.678;23.332;2023-05-20T12:36:30;94635.03;;;22.16;74.13
13209;BME280;6669;42.678;23.332;2023-05-20T12:38:59;94636.28;;;21.74;77.47
13209;BME280;6669;42.678;23.332;2023-05-20T12:41:27;94632.38;;;21.14;79.00
13209;BME280;6669;42.678;23.332;2023-05-20T12:43:55;94648.09;;;20.92;77.38
13209;BME280;6669;42.678;23.332;2023-05-20T12:46:23;94648.63;;;20.77;78.06
13209;BME280;6669;42.678;23.332;2023-05-20T12:48:51;94649.56;;;20.58;76.29
13209;BME280;6669;42.678;23.332;2023-05-20T12:51:19;94652.69;;;20.55;77.24
13209;BME280;6669;42.678;23.332;2023-05-20T12:53:49;94643.34;;;20.65;77.61
13209;BME280;6669;42.678;23.332;2023-05-20T12:56:17;94645.03;;;20.83;75.25
13209;BME280;6669;42.678;23.332;2023-05-20T12:58:45;94637.88;;;21.41;78.03
13209;BME280;6669;42.678;23.332;2023-05-20T13:01:13;94635.06;;;21.99;74.55
13209;BME280;6669;42.678;23.332;2023-05-20T13:03:41;94628.47;;;23.12;69.72
13209;BME280;6669;42.678;23.332;2023-05-20T13:06:09;94624.94;;;23.99;70.38